createdAt,value
2017-08-08T00:01:57.827Z,4.33
2017-08-08T00:04:26.116Z,4.33
2017-08-08T00:06:54.356Z,4.53
2017-08-08T00:09:22.670Z,4.23
2017-08-08T00:11:50.915Z,4.20
2017-08-08T00:14:19.165Z,4.33
2017-08-08T00:16:47.593Z,4.03
2017-08-08T00:19:15.845Z,4.10
2017-08-08T00:21:44.094Z,4.27
2017-08-08T00:24:12.352Z,4.37
2017-08-08T00:26:40.978Z,4.30
2017-08-08T00:29:09.214Z,4.57
2017-08-08T00:31:37.864Z,4.20
2017-08-08T00:34:06.109Z,4.40
2017-08-08T00:36:34.369Z,4.70
2017-08-08T00:39:02.646Z,4.70
2017-08-08T00:41:30.893Z,4.07
2017-08-08T00:43:59.540Z,4.70
2017-08-08T00:46:27.808Z,4.27
2017-08-08T00:48:56.037Z,4.70
2017-08-08T00:51:24.292Z,4.57
2017-08-08T00:53:52.586Z,4.57
2017-08-08T00:56:21.221Z,4.87
2017-08-08T00:58:49.485Z,5.20
2017-08-08T01:01:17.755Z,4.63
2017-08-08T01:03:46.013Z,4.53
2017-08-08T01:06:14.267Z,4.83
2017-08-08T01:08:42.568Z,4.77
2017-08-08T01:11:10.814Z,5.10
2017-08-08T01:13:39.449Z,5.10
2017-08-08T01:16:07.753Z,5.10
2017-08-08T01:18:36.161Z,5.00
2017-08-08T01:21:04.914Z,5.10
2017-08-08T01:23:33.172Z,4.80
2017-08-08T01:26:01.403Z,5.03
2017-08-08T01:28:30.047Z,4.43
2017-08-08T01:30:58.312Z,4.60
2017-08-08T01:33:26.560Z,5.03
2017-08-08T01:35:55.084Z,5.00
2017-08-08T01:38:23.373Z,4.80
2017-08-08T01:40:52.576Z,4.90
2017-08-08T01:43:21.015Z,4.90
2017-08-08T01:45:49.280Z,5.00
2017-08-08T01:48:17.512Z,5.73
2017-08-08T01:50:46.145Z,4.90
2017-08-08T01:53:14.421Z,5.07
2017-08-08T01:55:42.929Z,5.30
2017-08-08T01:58:11.185Z,5.00
2017-08-08T02:00:39.451Z,5.53
2017-08-08T02:03:07.699Z,5.10
2017-08-08T02:05:35.929Z,5.37
2017-08-08T02:08:04.192Z,5.40
2017-08-08T02:10:32.440Z,5.57
2017-08-08T02:13:00.898Z,4.97
2017-08-08T02:15:29.345Z,5.80
2017-08-08T02:17:57.601Z,5.50
2017-08-08T02:20:25.852Z,4.97
2017-08-08T02:22:54.870Z,5.27
2017-08-08T02:25:23.127Z,5.30
2017-08-08T02:27:51.360Z,5.80
2017-08-08T02:30:19.731Z,5.70
2017-08-08T02:32:48.192Z,5.60
2017-08-08T02:35:16.463Z,5.30
2017-08-08T02:37:44.749Z,5.07
2017-08-08T02:40:13.001Z,4.97
2017-08-08T02:42:41.249Z,5.17
2017-08-08T02:45:09.531Z,5.90
2017-08-08T02:47:37.989Z,5.70
2017-08-08T02:50:06.625Z,5.60
2017-08-08T02:52:34.908Z,5.80
2017-08-08T02:55:03.153Z,7.53
2017-08-08T02:57:31.387Z,5.83
2017-08-08T02:59:59.673Z,5.70
2017-08-08T03:02:28.308Z,5.73
2017-08-08T03:04:56.580Z,5.67
2017-08-08T03:07:24.838Z,6.20
2017-08-08T03:09:53.919Z,6.10
2017-08-08T03:12:22.151Z,5.73
2017-08-08T03:14:51.324Z,6.07
2017-08-08T03:17:19.582Z,6.50
2017-08-08T03:19:47.841Z,5.70
2017-08-08T03:22:16.107Z,6.93
2017-08-08T03:24:44.364Z,6.10
2017-08-08T03:27:12.605Z,5.93
2017-08-08T03:29:41.092Z,6.50
2017-08-08T03:32:09.351Z,5.73
2017-08-08T03:34:37.607Z,6.83
2017-08-08T03:37:05.901Z,6.37
2017-08-08T03:39:34.141Z,6.33
2017-08-08T03:42:03.206Z,6.60
2017-08-08T03:44:31.476Z,6.40
2017-08-08T03:46:59.726Z,6.13
2017-08-08T03:49:27.984Z,6.30
2017-08-08T03:51:56.329Z,6.60
2017-08-08T03:54:25.502Z,6.60
2017-08-08T03:56:53.785Z,7.10
2017-08-08T03:59:22.070Z,6.83
2017-08-08T04:01:50.469Z,7.40
2017-08-08T04:04:19.191Z,7.10
2017-08-08T04:06:47.479Z,7.13
2017-08-08T04:09:16.704Z,6.90
2017-08-08T04:11:45.147Z,6.67
2017-08-08T04:14:13.476Z,6.67
2017-08-08T04:16:42.121Z,6.60
2017-08-08T04:19:10.360Z,6.67
2017-08-08T04:21:39.518Z,7.37
2017-08-08T04:24:07.753Z,7.13
2017-08-08T04:26:36.029Z,6.83
2017-08-08T04:29:04.345Z,7.00
2017-08-08T04:31:32.584Z,6.93
2017-08-08T04:34:00.836Z,7.20
2017-08-08T04:36:29.108Z,7.30
2017-08-08T04:38:57.787Z,6.83
2017-08-08T04:41:26.909Z,6.63
2017-08-08T04:43:55.205Z,7.50
2017-08-08T04:46:23.447Z,7.10
2017-08-08T04:48:51.688Z,7.30
2017-08-08T04:51:19.970Z,8.03
2017-08-08T04:53:48.603Z,7.40
2017-08-08T04:56:16.854Z,7.20
2017-08-08T04:58:45.131Z,7.60
2017-08-08T05:01:13.386Z,7.73
2017-08-08T05:03:41.878Z,7.30
2017-08-08T05:06:10.532Z,7.80
2017-08-08T05:08:38.763Z,8.13
2017-08-08T05:11:07.364Z,7.93
2017-08-08T05:13:35.618Z,7.77
2017-08-08T05:16:03.863Z,7.73
2017-08-08T05:18:32.179Z,7.93
2017-08-08T05:21:00.444Z,7.53
2017-08-08T05:23:28.687Z,7.97
2017-08-08T05:25:57.343Z,8.20
2017-08-08T05:28:25.792Z,7.40
2017-08-08T05:30:54.878Z,7.80
2017-08-08T05:33:23.118Z,7.90
2017-08-08T05:35:51.379Z,6.90
2017-08-08T05:38:19.621Z,7.60
2017-08-08T05:40:47.864Z,7.87
2017-08-08T05:43:16.179Z,7.30
2017-08-08T05:45:44.460Z,7.10
2017-08-08T05:48:12.747Z,7.23
2017-08-08T05:50:41.243Z,7.27
2017-08-08T05:53:09.511Z,7.43
2017-08-08T05:55:37.777Z,7.20
2017-08-08T05:58:06.115Z,7.20
2017-08-08T06:00:34.366Z,7.60
2017-08-08T06:03:02.647Z,7.60
2017-08-08T06:05:30.933Z,7.30
2017-08-08T06:07:59.176Z,7.03
2017-08-08T06:10:27.453Z,7.43
2017-08-08T06:12:55.704Z,7.17
2017-08-08T06:15:24.191Z,6.43
2017-08-08T06:17:52.440Z,6.13
2017-08-08T06:20:20.679Z,6.07
2017-08-08T06:22:49.329Z,5.90
2017-08-08T06:25:17.585Z,7.23
2017-08-08T06:27:45.881Z,5.97
2017-08-08T06:30:15.325Z,5.83
2017-08-08T06:32:44.317Z,5.17
2017-08-08T06:35:12.763Z,5.20
2017-08-08T06:37:41.015Z,4.80
2017-08-08T06:40:09.468Z,4.90
2017-08-08T06:42:37.794Z,4.47
2017-08-08T06:45:06.310Z,4.60
2017-08-08T06:47:35.014Z,4.23
2017-08-08T06:50:03.502Z,4.90
2017-08-08T06:52:31.733Z,4.27
2017-08-08T06:55:00.032Z,4.63
2017-08-08T06:57:28.655Z,4.30
2017-08-08T06:59:56.892Z,4.10
2017-08-08T07:02:25.171Z,4.27
2017-08-08T07:04:53.414Z,3.90
2017-08-08T07:07:21.679Z,3.80
2017-08-08T07:09:49.939Z,4.03
2017-08-08T07:12:18.174Z,4.30
2017-08-08T07:14:46.851Z,4.00
2017-08-08T07:17:15.489Z,3.87
2017-08-08T07:19:43.725Z,3.60
2017-08-08T07:22:11.989Z,4.30
2017-08-08T07:24:40.616Z,3.70
2017-08-08T07:27:08.901Z,3.50
2017-08-08T07:29:37.169Z,3.90
2017-08-08T07:32:05.452Z,3.73
2017-08-08T07:34:35.238Z,3.33
2017-08-08T07:37:03.839Z,3.53
2017-08-08T07:39:33.180Z,3.80
2017-08-08T07:42:01.630Z,3.60
2017-08-08T07:44:29.893Z,3.17
2017-08-08T07:46:58.199Z,3.30
2017-08-08T07:49:26.494Z,3.23
2017-08-08T07:51:55.581Z,3.20
2017-08-08T07:54:23.857Z,3.20
2017-08-08T07:56:52.590Z,3.10
2017-08-08T07:59:20.890Z,2.90
2017-08-08T08:01:49.376Z,3.00
2017-08-08T08:04:17.619Z,2.80
2017-08-08T08:06:45.874Z,2.90
2017-08-08T08:09:14.180Z,3.13
2017-08-08T08:11:42.408Z,2.97
2017-08-08T08:14:10.660Z,3.47
2017-08-08T08:16:38.921Z,2.87
2017-08-08T08:19:07.150Z,2.90
2017-08-08T08:21:35.393Z,2.87
2017-08-08T08:24:03.675Z,2.50
2017-08-08T08:26:31.940Z,2.77
2017-08-08T08:29:00.193Z,3.00
2017-08-08T08:31:28.475Z,2.73
2017-08-08T08:33:56.970Z,2.57
2017-08-08T08:36:25.604Z,2.40
2017-08-08T08:38:53.864Z,2.13
2017-08-08T08:41:22.512Z,2.50
2017-08-08T08:43:50.827Z,2.40
2017-08-08T08:46:19.066Z,2.60
2017-08-08T08:48:47.338Z,2.50
2017-08-08T08:51:15.609Z,2.50
2017-08-08T08:53:44.076Z,2.53
2017-08-08T08:56:12.577Z,2.57
2017-08-08T08:58:41.818Z,2.20
2017-08-08T09:01:10.514Z,2.93
2017-08-08T09:03:39.132Z,2.70
2017-08-08T09:06:07.421Z,2.60
2017-08-08T09:08:35.664Z,2.40
2017-08-08T09:11:03.923Z,2.60
2017-08-08T09:13:32.584Z,2.40
2017-08-08T09:16:01.052Z,2.67
2017-08-08T09:18:29.358Z,2.90
2017-08-08T09:20:57.596Z,2.83
2017-08-08T09:23:25.891Z,3.50
2017-08-08T09:25:54.174Z,2.87
2017-08-08T09:28:22.411Z,3.00
2017-08-08T09:30:51.565Z,2.70
2017-08-08T09:33:19.855Z,3.37
2017-08-08T09:35:48.109Z,3.63
2017-08-08T09:38:16.389Z,3.57
2017-08-08T09:40:45.072Z,3.40
2017-08-08T09:43:13.299Z,3.40
2017-08-08T09:45:41.568Z,3.90
2017-08-08T09:48:09.845Z,3.70
2017-08-08T09:50:38.080Z,3.90
2017-08-08T09:53:06.332Z,3.63
2017-08-08T09:55:34.636Z,3.70
2017-08-08T09:58:02.892Z,3.80
2017-08-08T10:00:31.177Z,3.80
2017-08-08T10:02:59.873Z,3.37
2017-08-08T10:05:28.520Z,3.57
2017-08-08T10:07:57.429Z,3.73
2017-08-08T10:10:25.987Z,3.53
2017-08-08T10:12:55.245Z,3.63
2017-08-08T10:15:23.633Z,3.80
2017-08-08T10:17:51.943Z,3.57
2017-08-08T10:20:20.185Z,3.40
2017-08-08T10:22:48.431Z,3.80
2017-08-08T10:25:17.094Z,4.10
2017-08-08T10:27:46.725Z,3.60
2017-08-08T10:30:16.377Z,4.00
2017-08-08T10:32:45.598Z,3.50
2017-08-08T10:35:14.326Z,3.93
2017-08-08T10:37:43.298Z,3.53
2017-08-08T10:40:11.757Z,3.43
2017-08-08T10:42:40.012Z,3.27
2017-08-08T10:45:08.286Z,3.33
2017-08-08T10:47:36.528Z,3.63
2017-08-08T10:50:04.759Z,3.23
2017-08-08T10:52:33.028Z,3.83
2017-08-08T10:55:01.507Z,3.50
2017-08-08T10:57:29.753Z,4.10
2017-08-08T10:59:58.035Z,3.73
2017-08-08T11:02:26.276Z,3.40
2017-08-08T11:04:54.513Z,4.20
2017-08-08T11:07:22.896Z,3.90
2017-08-08T11:09:51.108Z,3.40
2017-08-08T11:12:19.652Z,3.80
2017-08-08T11:14:49.919Z,3.17
2017-08-08T11:17:18.238Z,3.90
2017-08-08T11:19:46.500Z,3.90
2017-08-08T11:22:14.803Z,3.70
2017-08-08T11:24:43.035Z,3.87
2017-08-08T11:27:11.300Z,3.50
2017-08-08T11:29:39.788Z,3.23
2017-08-08T11:32:08.022Z,4.20
2017-08-08T11:34:36.276Z,4.30
2017-08-08T11:37:04.543Z,3.90
2017-08-08T11:39:33.673Z,4.20
2017-08-08T11:42:01.903Z,4.23
2017-08-08T11:44:30.410Z,3.97
2017-08-08T11:46:58.678Z,4.07
2017-08-08T11:49:26.970Z,4.00
2017-08-08T11:51:55.257Z,4.70
2017-08-08T11:54:23.493Z,3.90
2017-08-08T11:56:51.761Z,4.37
2017-08-08T11:59:20.051Z,4.03
2017-08-08T12:01:48.300Z,3.70
2017-08-08T12:04:17.013Z,4.43
2017-08-08T12:06:45.264Z,4.13
2017-08-08T12:09:13.503Z,4.40
2017-08-08T12:11:41.742Z,4.17
2017-08-08T12:14:10.002Z,3.90
2017-08-08T12:16:38.249Z,3.77
2017-08-08T12:19:06.592Z,4.13
2017-08-08T12:21:34.828Z,4.37
2017-08-08T12:24:03.067Z,4.30
2017-08-08T12:26:31.355Z,3.77
2017-08-08T12:28:59.666Z,4.20
2017-08-08T12:31:27.942Z,4.20
2017-08-08T12:33:56.272Z,4.30
2017-08-08T12:36:24.531Z,3.63
2017-08-08T12:38:52.844Z,4.33
2017-08-08T12:41:21.343Z,4.00
2017-08-08T12:43:49.593Z,4.17
2017-08-08T12:46:17.868Z,3.57
2017-08-08T12:48:46.760Z,3.80
2017-08-08T12:51:15.000Z,3.80
2017-08-08T12:53:43.249Z,6.37
2017-08-08T12:56:11.529Z,4.97
2017-08-08T12:58:39.764Z,3.83
2017-08-08T13:01:08.013Z,3.93
2017-08-08T13:03:36.322Z,3.90
2017-08-08T13:06:04.580Z,3.90
2017-08-08T13:08:32.827Z,3.90
2017-08-08T13:11:01.117Z,3.90
2017-08-08T13:13:29.364Z,3.83
2017-08-08T13:15:57.608Z,4.07
2017-08-08T13:18:25.909Z,3.67
2017-08-08T13:20:54.155Z,3.50
2017-08-08T13:23:22.635Z,3.50
2017-08-08T13:25:50.918Z,3.30
2017-08-08T13:28:19.233Z,3.33
2017-08-08T13:30:47.491Z,3.57
2017-08-08T13:33:15.784Z,3.70
2017-08-08T13:35:44.037Z,3.57
2017-08-08T13:38:12.446Z,3.60
2017-08-08T13:40:40.733Z,3.80
2017-08-08T13:43:09.533Z,3.50
2017-08-08T13:45:38.206Z,3.47
2017-08-08T13:48:06.522Z,3.87
2017-08-08T13:50:34.773Z,3.73
2017-08-08T13:53:03.037Z,3.73
2017-08-08T13:55:31.300Z,3.70
2017-08-08T13:57:59.536Z,3.70
2017-08-08T14:00:27.813Z,4.03
2017-08-08T14:02:56.088Z,3.97
2017-08-08T14:05:24.368Z,3.77
2017-08-08T14:07:52.720Z,3.83
2017-08-08T14:10:21.054Z,4.00
2017-08-08T14:12:49.300Z,3.83
2017-08-08T14:15:17.575Z,3.93
2017-08-08T14:17:45.824Z,3.80
2017-08-08T14:20:14.501Z,3.93
2017-08-08T14:22:43.401Z,3.60
2017-08-08T14:25:12.074Z,3.87
2017-08-08T14:27:40.366Z,4.67
2017-08-08T14:30:08.631Z,4.53
2017-08-08T14:32:36.872Z,4.37
2017-08-08T14:35:05.209Z,4.23
2017-08-08T14:37:33.495Z,3.80
2017-08-08T14:40:01.782Z,4.10
2017-08-08T14:42:30.116Z,4.33
2017-08-08T14:44:58.383Z,4.00
2017-08-08T14:47:27.035Z,3.77
2017-08-08T14:49:55.309Z,4.13
2017-08-08T14:52:23.575Z,4.83
2017-08-08T14:54:51.839Z,4.13
2017-08-08T14:57:20.144Z,4.07
2017-08-08T14:59:48.420Z,4.43
2017-08-08T15:02:16.701Z,4.33
2017-08-08T15:04:44.975Z,4.70
2017-08-08T15:07:13.224Z,4.57
2017-08-08T15:09:41.896Z,4.50
2017-08-08T15:12:10.161Z,4.20
2017-08-08T15:14:38.408Z,3.83
2017-08-08T15:17:07.186Z,4.23
2017-08-08T15:19:35.725Z,4.10
2017-08-08T15:22:04.019Z,4.00
2017-08-08T15:24:32.309Z,3.77
2017-08-08T15:27:00.575Z,3.90
2017-08-08T15:29:28.950Z,4.37
2017-08-08T15:31:57.208Z,4.50
2017-08-08T15:34:25.563Z,4.10
2017-08-08T15:36:53.800Z,4.07
2017-08-08T15:39:22.242Z,4.53
2017-08-08T15:41:50.765Z,4.33
2017-08-08T15:44:19.029Z,4.33
2017-08-08T15:46:47.296Z,4.17
2017-08-08T15:49:15.581Z,4.03
2017-08-08T15:51:43.815Z,4.20
2017-08-08T15:54:12.297Z,4.50
2017-08-08T15:56:40.582Z,4.40
2017-08-08T15:59:08.855Z,4.20
2017-08-08T16:01:37.125Z,4.23
2017-08-08T16:04:05.642Z,4.40
2017-08-08T16:06:33.880Z,4.20
2017-08-08T16:09:02.145Z,4.90
2017-08-08T16:11:30.505Z,4.43
2017-08-08T16:13:58.852Z,4.97
2017-08-08T16:16:27.178Z,4.73
2017-08-08T16:18:55.529Z,4.63
2017-08-08T16:21:23.784Z,5.57
2017-08-08T16:23:53.619Z,4.87
2017-08-08T16:26:21.962Z,5.00
2017-08-08T16:28:50.449Z,4.57
2017-08-08T16:31:18.904Z,4.40
2017-08-08T16:33:47.200Z,5.40
2017-08-08T16:36:15.489Z,5.13
2017-08-08T16:38:43.712Z,5.40
2017-08-08T16:41:12.980Z,5.40
2017-08-08T16:43:41.292Z,5.67
2017-08-08T16:46:09.601Z,5.30
2017-08-08T16:48:38.360Z,4.93
2017-08-08T16:51:06.605Z,4.70
2017-08-08T16:53:35.121Z,5.00
2017-08-08T16:56:03.465Z,4.03
2017-08-08T16:58:31.761Z,4.50
2017-08-08T17:01:00.399Z,4.23
2017-08-08T17:03:28.734Z,4.73
2017-08-08T17:05:57.123Z,4.53
2017-08-08T17:08:25.410Z,4.13
2017-08-08T17:10:53.791Z,4.87
2017-08-08T17:13:22.058Z,4.90
2017-08-08T17:15:50.944Z,5.13
2017-08-08T17:18:19.238Z,4.83
2017-08-08T17:20:47.492Z,4.80
2017-08-08T17:23:15.852Z,4.70
2017-08-08T17:25:44.129Z,5.20
2017-08-08T17:28:12.476Z,4.50
2017-08-08T17:30:41.556Z,4.60
2017-08-08T17:33:09.897Z,4.60
2017-08-08T17:35:38.153Z,4.87
2017-08-08T17:38:24.081Z,4.30
2017-08-08T17:40:56.843Z,5.70
2017-08-08T17:43:25.129Z,5.20
2017-08-08T17:45:53.541Z,4.97
2017-08-08T17:48:22.248Z,4.80
2017-08-08T17:50:50.672Z,4.73
2017-08-08T17:53:18.986Z,4.97
2017-08-08T17:55:47.308Z,4.90
2017-08-08T17:58:15.685Z,4.90
2017-08-08T18:00:43.970Z,4.80
2017-08-08T18:03:12.292Z,4.37
2017-08-08T18:05:40.873Z,6.10
2017-08-08T18:08:09.254Z,5.30
2017-08-08T18:10:37.616Z,4.73
2017-08-08T18:13:05.903Z,5.07
2017-08-08T18:15:34.345Z,5.37
2017-08-08T18:18:02.632Z,5.67
2017-08-08T18:20:30.944Z,5.80
2017-08-08T18:22:59.311Z,6.40
2017-08-08T18:25:27.627Z,6.23
2017-08-08T18:27:56.173Z,6.23
2017-08-08T18:30:24.587Z,6.53
2017-08-08T18:32:53.237Z,5.97
2017-08-08T18:35:21.552Z,5.73
2017-08-08T18:37:49.950Z,5.90
2017-08-08T18:40:18.282Z,5.53
2017-08-08T18:42:46.555Z,6.03
2017-08-08T18:45:15.043Z,5.70
2017-08-08T18:47:43.291Z,5.60
2017-08-08T18:50:11.564Z,5.43
2017-08-08T18:52:39.841Z,5.60
2017-08-08T18:55:08.103Z,5.57
2017-08-08T18:57:37.164Z,5.50
2017-08-08T19:00:05.896Z,5.20
2017-08-08T19:02:34.247Z,5.73
2017-08-08T19:05:02.805Z,6.20
2017-08-08T19:07:31.057Z,5.00
2017-08-08T19:09:59.304Z,5.00
2017-08-08T19:12:27.548Z,5.30
2017-08-08T19:14:55.907Z,5.20
2017-08-08T19:17:24.213Z,4.80
2017-08-08T19:19:52.694Z,5.23
2017-08-08T19:22:20.965Z,5.30
2017-08-08T19:24:49.208Z,5.20
2017-08-08T19:27:17.471Z,4.90
2017-08-08T19:29:45.790Z,5.00
2017-08-08T19:32:14.091Z,5.13
2017-08-08T19:34:42.348Z,5.40
2017-08-08T19:37:12.357Z,5.20
2017-08-08T19:39:40.685Z,5.67
2017-08-08T19:42:08.972Z,5.97
2017-08-08T19:44:37.324Z,5.80
2017-08-08T19:47:06.591Z,5.50
2017-08-08T19:49:34.987Z,5.80
2017-08-08T19:52:03.347Z,6.10
2017-08-08T19:54:31.808Z,6.50
2017-08-08T19:57:00.463Z,5.20
2017-08-08T19:59:28.973Z,6.07
2017-08-08T20:01:57.614Z,6.40
2017-08-08T20:04:25.869Z,8.57
2017-08-08T20:06:54.289Z,6.10
2017-08-08T20:09:22.581Z,6.37
2017-08-08T20:11:51.219Z,6.33
2017-08-08T20:14:19.628Z,6.10
2017-08-08T20:16:47.921Z,5.47
2017-08-08T20:19:16.180Z,6.00
2017-08-08T20:21:44.558Z,5.67
2017-08-08T20:24:12.793Z,5.77
2017-08-08T20:26:41.035Z,5.80
2017-08-08T20:29:09.342Z,5.80
2017-08-08T20:31:37.567Z,5.60
2017-08-08T20:34:05.973Z,5.30
2017-08-08T20:36:34.255Z,6.10
2017-08-08T20:39:02.549Z,6.10
2017-08-08T20:41:30.801Z,6.00
2017-08-08T20:43:59.105Z,5.83
2017-08-08T20:46:27.845Z,5.80
2017-08-08T20:48:56.153Z,5.80
2017-08-08T20:51:24.588Z,5.30
2017-08-08T20:53:53.053Z,5.40
2017-08-08T20:56:21.314Z,5.00
2017-08-08T20:58:49.604Z,5.20
2017-08-08T21:01:17.859Z,5.63
2017-08-08T21:03:46.106Z,5.30
2017-08-08T21:06:14.381Z,5.20
2017-08-08T21:08:42.681Z,5.10
2017-08-08T21:11:10.925Z,5.13
2017-08-08T21:13:39.208Z,5.33
2017-08-08T21:16:07.472Z,5.23
2017-08-08T21:18:36.330Z,5.90
2017-08-08T21:21:04.808Z,6.10
2017-08-08T21:23:33.292Z,5.80
2017-08-08T21:26:01.548Z,5.27
2017-08-08T21:28:29.827Z,5.13
2017-08-08T21:30:58.062Z,5.80
2017-08-08T21:33:26.712Z,5.80
2017-08-08T21:35:55.023Z,5.37
2017-08-08T21:38:23.268Z,5.97
2017-08-08T21:40:51.544Z,5.70
2017-08-08T21:43:19.870Z,5.50
2017-08-08T21:45:48.191Z,5.23
2017-08-08T21:48:16.984Z,5.70
2017-08-08T21:50:45.508Z,6.20
2017-08-08T21:53:13.752Z,6.30
2017-08-08T21:55:41.999Z,6.10
2017-08-08T21:58:10.270Z,6.00
2017-08-08T22:00:38.915Z,6.70
2017-08-08T22:03:07.258Z,6.30
2017-08-08T22:05:35.549Z,5.70
2017-08-08T22:08:03.773Z,5.70
2017-08-08T22:10:32.014Z,5.73
2017-08-08T22:13:00.674Z,5.50
2017-08-08T22:15:28.912Z,5.73
2017-08-08T22:17:57.428Z,6.00
2017-08-08T22:20:25.994Z,5.80
2017-08-08T22:22:54.227Z,6.07
2017-08-08T22:25:22.484Z,5.70
2017-08-08T22:27:51.424Z,6.07
2017-08-08T22:30:19.660Z,5.77
2017-08-08T22:32:48.012Z,5.30
2017-08-08T22:35:16.606Z,5.53
2017-08-08T22:37:45.251Z,5.93
2017-08-08T22:40:13.824Z,5.90
2017-08-08T22:42:42.108Z,5.87
2017-08-08T22:45:10.401Z,5.53
2017-08-08T22:47:39.455Z,5.77
2017-08-08T22:50:07.751Z,5.90
2017-08-08T22:52:35.990Z,6.30
2017-08-08T22:55:04.241Z,5.93
2017-08-08T22:57:32.501Z,6.00
2017-08-08T23:00:00.735Z,6.37
2017-08-08T23:02:28.987Z,6.30
2017-08-08T23:04:57.306Z,6.43
2017-08-08T23:07:25.549Z,6.37
2017-08-08T23:09:53.801Z,6.57
2017-08-08T23:12:22.121Z,6.27
2017-08-08T23:14:50.394Z,6.33
2017-08-08T23:17:18.642Z,6.23
2017-08-08T23:19:47.551Z,6.80
2017-08-08T23:22:15.805Z,6.57
2017-08-08T23:24:44.441Z,6.63
2017-08-08T23:27:12.712Z,6.40
2017-08-08T23:29:40.950Z,6.50
2017-08-08T23:32:09.577Z,6.93
2017-08-08T23:34:37.874Z,7.33
2017-08-08T23:37:06.115Z,7.63
2017-08-08T23:39:34.352Z,6.60
2017-08-08T23:42:02.636Z,7.70
2017-08-08T23:44:30.880Z,7.63
2017-08-08T23:46:59.128Z,7.90
2017-08-08T23:49:27.415Z,8.03
2017-08-08T23:51:55.672Z,7.77
2017-08-08T23:54:23.960Z,6.87
2017-08-08T23:56:53.323Z,7.80
2017-08-08T23:59:21.558Z,7.53
